sensor_id;sensor_type;location;lat;lon;timestamp;P1;durP1;ratioP1;P2;durP2;ratioP2
3733;SDS011;1882;52.256;8.874;2023-03-01T00:02:22;6.10;;;4.10;;
3733;SDS011;1882;52.256;8.874;2023-03-01T00:04:49;8.93;;;4.30;;
3733;SDS011;1882;52.256;8.874;2023-03-01T00:07:16;7.67;;;4.57;;
3733;SDS011;1882;52.256;8.874;2023-03-01T00:09:47;8.43;;;4.57;;
3733;SDS011;1882;52.256;8.874;2023-03-01T00:12:14;7.10;;;4.77;;
3733;SDS011;1882;52.256;8.874;2023-03-01T00:14:43;7.73;;;4.73;;
3733;SDS011;1882;52.256;8.874;2023-03-01T00:17:17;9.13;;;5.20;;
3733;SDS011;1882;52.256;8.874;2023-03-01T00:19:44;10.70;;;5.10;;
3733;SDS011;1882;52.256;8.874;2023-03-01T00:22:13;10.23;;;4.50;;
3733;SDS011;1882;52.256;8.874;2023-03-01T00:24:40;7.03;;;4.90;;
3733;SDS011;1882;52.256;8.874;2023-03-01T00:27:16;9.07;;;5.23;;
3733;SDS011;1882;52.256;8.874;2023-03-01T00:29:43;9.27;;;5.20;;
3733;SDS011;1882;52.256;8.874;2023-03-01T00:32:09;9.40;;;5.47;;
3733;SDS011;1882;52.256;8.874;2023-03-01T00:34:40;11.13;;;5.90;;
3733;SDS011;1882;52.256;8.874;2023-03-01T00:37:11;11.43;;;5.80;;
3733;SDS011;1882;52.256;8.874;2023-03-01T00:39:38;10.20;;;5.70;;
3733;SDS011;1882;52.256;8.874;2023-03-01T00:42:14;8.23;;;5.00;;
3733;SDS011;1882;52.256;8.874;2023-03-01T00:44:41;12.87;;;5.50;;
3733;SDS011;1882;52.256;8.874;2023-03-01T00:47:10;13.00;;;6.03;;
3733;SDS011;1882;52.256;8.874;2023-03-01T00:49:41;9.90;;;5.33;;
3733;SDS011;1882;52.256;8.874;2023-03-01T00:52:08;8.10;;;5.13;;
3733;SDS011;1882;52.256;8.874;2023-03-01T00:54:43;8.03;;;5.90;;
3733;SDS011;1882;52.256;8.874;2023-03-01T00:57:12;11.07;;;6.80;;
3733;SDS011;1882;52.256;8.874;2023-03-01T00:59:41;10.23;;;6.67;;
3733;SDS011;1882;52.256;8.874;2023-03-01T01:02:11;11.93;;;6.20;;
3733;SDS011;1882;52.256;8.874;2023-03-01T01:04:48;9.43;;;5.57;;
3733;SDS011;1882;52.256;8.874;2023-03-01T01:07:14;12.00;;;6.20;;
3733;SDS011;1882;52.256;8.874;2023-03-01T01:09:44;9.57;;;5.80;;
3733;SDS011;1882;52.256;8.874;2023-03-01T01:12:14;9.83;;;6.03;;
3733;SDS011;1882;52.256;8.874;2023-03-01T01:14:43;10.57;;;6.33;;
3733;SDS011;1882;52.256;8.874;2023-03-01T01:17:10;9.53;;;6.20;;
3733;SDS011;1882;52.256;8.874;2023-03-01T01:19:47;10.97;;;5.97;;
3733;SDS011;1882;52.256;8.874;2023-03-01T01:22:13;10.77;;;6.20;;
3733;SDS011;1882;52.256;8.874;2023-03-01T01:24:47;8.73;;;6.23;;
3733;SDS011;1882;52.256;8.874;2023-03-01T01:27:17;10.80;;;6.23;;
3733;SDS011;1882;52.256;8.874;2023-03-01T01:29:44;11.20;;;6.30;;
3733;SDS011;1882;52.256;8.874;2023-03-01T01:32:14;11.00;;;6.20;;
3733;SDS011;1882;52.256;8.874;2023-03-01T01:34:48;12.40;;;7.33;;
3733;SDS011;1882;52.256;8.874;2023-03-01T01:37:15;13.00;;;6.70;;
3733;SDS011;1882;52.256;8.874;2023-03-01T01:39:44;10.47;;;6.67;;
3733;SDS011;1882;52.256;8.874;2023-03-01T01:42:29;14.03;;;7.60;;
3733;SDS011;1882;52.256;8.874;2023-03-01T01:45:24;16.30;;;7.53;;
3733;SDS011;1882;52.256;8.874;2023-03-01T01:47:52;13.20;;;7.30;;
3733;SDS011;1882;52.256;8.874;2023-03-01T01:50:21;11.57;;;7.63;;
3733;SDS011;1882;52.256;8.874;2023-03-01T01:52:48;14.50;;;7.90;;
3733;SDS011;1882;52.256;8.874;2023-03-01T01:55:18;13.40;;;8.20;;
3733;SDS011;1882;52.256;8.874;2023-03-01T01:57:48;13.67;;;8.13;;
3733;SDS011;1882;52.256;8.874;2023-03-01T02:00:19;13.67;;;8.40;;
3733;SDS011;1882;52.256;8.874;2023-03-01T02:02:49;11.73;;;7.37;;
3733;SDS011;1882;52.256;8.874;2023-03-01T02:05:26;14.83;;;8.33;;
3733;SDS011;1882;52.256;8.874;2023-03-01T02:08:06;17.63;;;8.23;;
3733;SDS011;1882;52.256;8.874;2023-03-01T02:10:35;15.53;;;8.03;;
3733;SDS011;1882;52.256;8.874;2023-03-01T02:13:05;14.90;;;8.33;;
3733;SDS011;1882;52.256;8.874;2023-03-01T02:15:35;17.20;;;7.70;;
3733;SDS011;1882;52.256;8.874;2023-03-01T02:18:05;13.30;;;8.13;;
3733;SDS011;1882;52.256;8.874;2023-03-01T02:23:21;14.13;;;7.97;;
3733;SDS011;1882;52.256;8.874;2023-03-01T02:25:56;13.10;;;8.07;;
3733;SDS011;1882;52.256;8.874;2023-03-01T02:28:34;16.17;;;8.63;;
3733;SDS011;1882;52.256;8.874;2023-03-01T02:31:03;10.47;;;7.43;;
3733;SDS011;1882;52.256;8.874;2023-03-01T02:33:55;12.20;;;6.80;;
3733;SDS011;1882;52.256;8.874;2023-03-01T02:36:29;11.73;;;7.10;;
3733;SDS011;1882;52.256;8.874;2023-03-01T02:38:59;9.03;;;5.47;;
3733;SDS011;1882;52.256;8.874;2023-03-01T02:41:28;9.13;;;5.67;;
3733;SDS011;1882;52.256;8.874;2023-03-01T02:43:57;10.60;;;6.40;;
3733;SDS011;1882;52.256;8.874;2023-03-01T02:46:25;9.43;;;5.90;;
3733;SDS011;1882;52.256;8.874;2023-03-01T02:49:16;12.50;;;6.30;;
3733;SDS011;1882;52.256;8.874;2023-03-01T02:57:17;9.20;;;5.20;;
3733;SDS011;1882;52.256;8.874;2023-03-01T02:59:44;11.57;;;6.47;;
3733;SDS011;1882;52.256;8.874;2023-03-01T03:02:18;12.07;;;6.03;;
3733;SDS011;1882;52.256;8.874;2023-03-01T03:05:10;8.77;;;5.53;;
3733;SDS011;1882;52.256;8.874;2023-03-01T03:07:49;11.97;;;5.70;;
3733;SDS011;1882;52.256;8.874;2023-03-01T03:10:21;11.33;;;5.63;;
3733;SDS011;1882;52.256;8.874;2023-03-01T03:12:58;8.03;;;5.10;;
3733;SDS011;1882;52.256;8.874;2023-03-01T03:15:39;9.40;;;5.73;;
3733;SDS011;1882;52.256;8.874;2023-03-01T03:18:09;9.73;;;5.67;;
3733;SDS011;1882;52.256;8.874;2023-03-01T03:20:43;10.73;;;5.93;;
3733;SDS011;1882;52.256;8.874;2023-03-01T03:23:10;11.87;;;6.10;;
3733;SDS011;1882;52.256;8.874;2023-03-01T03:25:37;7.63;;;4.80;;
3733;SDS011;1882;52.256;8.874;2023-03-01T03:28:05;8.90;;;5.60;;
3733;SDS011;1882;52.256;8.874;2023-03-01T03:30:40;11.87;;;6.43;;
3733;SDS011;1882;52.256;8.874;2023-03-01T03:33:08;10.73;;;6.97;;
3733;SDS011;1882;52.256;8.874;2023-03-01T03:35:43;11.47;;;7.40;;
3733;SDS011;1882;52.256;8.874;2023-03-01T03:38:14;9.77;;;6.37;;
3733;SDS011;1882;52.256;8.874;2023-03-01T03:40:44;15.17;;;7.67;;
3733;SDS011;1882;52.256;8.874;2023-03-01T03:43:16;10.70;;;6.93;;
3733;SDS011;1882;52.256;8.874;2023-03-01T03:45:45;10.03;;;6.03;;
3733;SDS011;1882;52.256;8.874;2023-03-01T03:48:13;9.23;;;6.37;;
3733;SDS011;1882;52.256;8.874;2023-03-01T03:50:40;15.30;;;6.77;;
3733;SDS011;1882;52.256;8.874;2023-03-01T03:53:15;12.87;;;7.10;;
3733;SDS011;1882;52.256;8.874;2023-03-01T03:55:41;13.20;;;7.73;;
3733;SDS011;1882;52.256;8.874;2023-03-01T03:58:09;11.53;;;6.80;;
3733;SDS011;1882;52.256;8.874;2023-03-01T04:00:37;11.23;;;6.87;;
3733;SDS011;1882;52.256;8.874;2023-03-01T04:03:06;14.00;;;7.27;;
3733;SDS011;1882;52.256;8.874;2023-03-01T04:05:33;15.83;;;8.00;;
3733;SDS011;1882;52.256;8.874;2023-03-01T04:08:08;13.03;;;7.00;;
3733;SDS011;1882;52.256;8.874;2023-03-01T04:13:06;17.20;;;9.13;;
3733;SDS011;1882;52.256;8.874;2023-03-01T04:15:36;18.27;;;9.20;;
3733;SDS011;1882;52.256;8.874;2023-03-01T04:18:06;14.30;;;7.83;;
3733;SDS011;1882;52.256;8.874;2023-03-01T04:20:36;14.87;;;8.37;;
3733;SDS011;1882;52.256;8.874;2023-03-01T04:25:45;12.50;;;6.53;;
3733;SDS011;1882;52.256;8.874;2023-03-01T04:28:12;13.43;;;7.90;;
3733;SDS011;1882;52.256;8.874;2023-03-01T04:30:39;13.27;;;8.13;;
3733;SDS011;1882;52.256;8.874;2023-03-01T04:33:09;13.50;;;8.47;;
3733;SDS011;1882;52.256;8.874;2023-03-01T04:35:36;14.47;;;8.60;;
3733;SDS011;1882;52.256;8.874;2023-03-01T04:38:05;16.67;;;7.80;;
3733;SDS011;1882;52.256;8.874;2023-03-01T04:40:40;14.93;;;8.93;;
3733;SDS011;1882;52.256;8.874;2023-03-01T04:43:09;14.40;;;9.10;;
3733;SDS011;1882;52.256;8.874;2023-03-01T04:45:37;15.67;;;8.93;;
3733;SDS011;1882;52.256;8.874;2023-03-01T04:48:04;16.63;;;9.10;;
3733;SDS011;1882;52.256;8.874;2023-03-01T04:50:37;19.23;;;9.40;;
3733;SDS011;1882;52.256;8.874;2023-03-01T04:53:04;15.73;;;9.33;;
3733;SDS011;1882;52.256;8.874;2023-03-01T04:55:38;13.93;;;9.60;;
3733;SDS011;1882;52.256;8.874;2023-03-01T04:58:05;16.83;;;9.97;;
3733;SDS011;1882;52.256;8.874;2023-03-01T05:00:34;17.83;;;10.70;;
3733;SDS011;1882;52.256;8.874;2023-03-01T05:03:04;19.93;;;11.00;;
3733;SDS011;1882;52.256;8.874;2023-03-01T05:05:35;17.13;;;10.30;;
3733;SDS011;1882;52.256;8.874;2023-03-01T05:08:07;20.47;;;10.90;;
3733;SDS011;1882;52.256;8.874;2023-03-01T05:10:34;16.33;;;10.37;;
3733;SDS011;1882;52.256;8.874;2023-03-01T05:13:03;18.10;;;10.33;;
3733;SDS011;1882;52.256;8.874;2023-03-01T05:15:30;17.40;;;11.27;;
3733;SDS011;1882;52.256;8.874;2023-03-01T05:18:03;21.20;;;11.17;;
3733;SDS011;1882;52.256;8.874;2023-03-01T05:20:39;16.97;;;10.30;;
3733;SDS011;1882;52.256;8.874;2023-03-01T05:23:07;21.57;;;10.77;;
3733;SDS011;1882;52.256;8.874;2023-03-01T05:25:34;18.23;;;10.60;;
3733;SDS011;1882;52.256;8.874;2023-03-01T05:28:01;18.33;;;9.67;;
3733;SDS011;1882;52.256;8.874;2023-03-01T05:30:36;17.90;;;10.03;;
3733;SDS011;1882;52.256;8.874;2023-03-01T05:33:05;20.97;;;9.97;;
3733;SDS011;1882;52.256;8.874;2023-03-01T05:35:39;20.77;;;10.50;;
3733;SDS011;1882;52.256;8.874;2023-03-01T05:38:12;19.00;;;10.70;;
3733;SDS011;1882;52.256;8.874;2023-03-01T05:40:40;19.37;;;11.60;;
3733;SDS011;1882;52.256;8.874;2023-03-01T05:43:12;18.57;;;10.73;;
3733;SDS011;1882;52.256;8.874;2023-03-01T05:45:40;19.20;;;11.53;;
3733;SDS011;1882;52.256;8.874;2023-03-01T05:48:08;17.50;;;10.17;;
3733;SDS011;1882;52.256;8.874;2023-03-01T05:50:36;18.27;;;10.00;;
3733;SDS011;1882;52.256;8.874;2023-03-01T05:53:15;15.33;;;9.23;;
3733;SDS011;1882;52.256;8.874;2023-03-01T05:55:43;15.33;;;8.70;;
3733;SDS011;1882;52.256;8.874;2023-03-01T05:58:16;12.83;;;8.40;;
3733;SDS011;1882;52.256;8.874;2023-03-01T06:00:44;13.00;;;8.70;;
3733;SDS011;1882;52.256;8.874;2023-03-01T06:03:14;11.03;;;7.13;;
3733;SDS011;1882;52.256;8.874;2023-03-01T06:05:47;9.40;;;6.70;;
3733;SDS011;1882;52.256;8.874;2023-03-01T06:08:14;14.80;;;9.07;;
3733;SDS011;1882;52.256;8.874;2023-03-01T06:10:40;13.50;;;8.50;;
3733;SDS011;1882;52.256;8.874;2023-03-01T06:13:07;17.60;;;8.73;;
3733;SDS011;1882;52.256;8.874;2023-03-01T06:15:36;17.67;;;9.63;;
3733;SDS011;1882;52.256;8.874;2023-03-01T06:18:03;17.17;;;9.10;;
3733;SDS011;1882;52.256;8.874;2023-03-01T06:20:30;19.40;;;9.40;;
3733;SDS011;1882;52.256;8.874;2023-03-01T06:23:07;15.00;;;8.90;;
3733;SDS011;1882;52.256;8.874;2023-03-01T06:25:36;16.70;;;8.40;;
3733;SDS011;1882;52.256;8.874;2023-03-01T06:28:06;14.70;;;8.03;;
3733;SDS011;1882;52.256;8.874;2023-03-01T06:30:35;15.83;;;8.17;;
3733;SDS011;1882;52.256;8.874;2023-03-01T06:33:06;18.30;;;9.30;;
3733;SDS011;1882;52.256;8.874;2023-03-01T06:35:36;17.47;;;9.00;;
3733;SDS011;1882;52.256;8.874;2023-03-01T06:38:11;13.17;;;7.40;;
3733;SDS011;1882;52.256;8.874;2023-03-01T06:40:38;22.97;;;11.37;;
3733;SDS011;1882;52.256;8.874;2023-03-01T06:43:05;19.77;;;11.13;;
3733;SDS011;1882;52.256;8.874;2023-03-01T06:45:33;25.37;;;12.00;;
3733;SDS011;1882;52.256;8.874;2023-03-01T06:48:10;22.90;;;10.70;;
3733;SDS011;1882;52.256;8.874;2023-03-01T06:50:36;18.00;;;10.07;;
3733;SDS011;1882;52.256;8.874;2023-03-01T06:53:04;18.20;;;8.90;;
3733;SDS011;1882;52.256;8.874;2023-03-01T06:55:38;15.20;;;7.93;;
3733;SDS011;1882;52.256;8.874;2023-03-01T06:58:05;13.70;;;7.83;;
3733;SDS011;1882;52.256;8.874;2023-03-01T07:00:34;15.47;;;8.17;;
3733;SDS011;1882;52.256;8.874;2023-03-01T07:03:04;14.37;;;8.50;;
3733;SDS011;1882;52.256;8.874;2023-03-01T07:05:30;12.00;;;8.10;;
3733;SDS011;1882;52.256;8.874;2023-03-01T07:08:07;18.03;;;8.73;;
3733;SDS011;1882;52.256;8.874;2023-03-01T07:10:34;14.50;;;8.30;;
3733;SDS011;1882;52.256;8.874;2023-03-01T07:13:03;16.93;;;9.20;;
3733;SDS011;1882;52.256;8.874;2023-03-01T07:15:30;16.40;;;9.53;;
3733;SDS011;1882;52.256;8.874;2023-03-01T07:18:07;15.70;;;8.67;;
3733;SDS011;1882;52.256;8.874;2023-03-01T07:20:34;18.33;;;9.13;;
3733;SDS011;1882;52.256;8.874;2023-03-01T07:23:04;16.30;;;9.67;;
3733;SDS011;1882;52.256;8.874;2023-03-01T07:25:35;15.80;;;9.90;;
3733;SDS011;1882;52.256;8.874;2023-03-01T07:28:04;21.23;;;10.53;;
3733;SDS011;1882;52.256;8.874;2023-03-01T07:30:38;15.90;;;9.83;;
3733;SDS011;1882;52.256;8.874;2023-03-01T07:33:06;20.60;;;13.00;;
3733;SDS011;1882;52.256;8.874;2023-03-01T07:35:34;22.10;;;11.73;;
3733;SDS011;1882;52.256;8.874;2023-03-01T07:38:01;20.20;;;11.50;;
3733;SDS011;1882;52.256;8.874;2023-03-01T07:40:30;22.00;;;12.30;;
3733;SDS011;1882;52.256;8.874;2023-03-01T07:43:06;20.27;;;12.27;;
3733;SDS011;1882;52.256;8.874;2023-03-01T07:45:36;20.43;;;12.73;;
3733;SDS011;1882;52.256;8.874;2023-03-01T07:48:03;18.67;;;12.00;;
3733;SDS011;1882;52.256;8.874;2023-03-01T07:50:41;23.30;;;13.03;;
3733;SDS011;1882;52.256;8.874;2023-03-01T07:53:08;21.70;;;12.97;;
3733;SDS011;1882;52.256;8.874;2023-03-01T07:55:36;21.83;;;13.33;;
3733;SDS011;1882;52.256;8.874;2023-03-01T07:58:12;26.43;;;14.30;;
3733;SDS011;1882;52.256;8.874;2023-03-01T08:00:38;24.57;;;14.53;;
3733;SDS011;1882;52.256;8.874;2023-03-01T08:03:05;23.50;;;13.77;;
3733;SDS011;1882;52.256;8.874;2023-03-01T08:05:32;22.93;;;13.50;;
3733;SDS011;1882;52.256;8.874;2023-03-01T08:08:04;25.93;;;14.70;;
3733;SDS011;1882;52.256;8.874;2023-03-01T08:10:33;25.53;;;14.60;;
3733;SDS011;1882;52.256;8.874;2023-03-01T08:13:21;23.07;;;14.63;;
3733;SDS011;1882;52.256;8.874;2023-03-01T08:15:49;24.23;;;13.60;;
3733;SDS011;1882;52.256;8.874;2023-03-01T08:18:36;19.20;;;12.03;;
3733;SDS011;1882;52.256;8.874;2023-03-01T08:21:06;20.87;;;13.27;;
3733;SDS011;1882;52.256;8.874;2023-03-01T08:23:37;22.57;;;13.60;;
3733;SDS011;1882;52.256;8.874;2023-03-01T08:26:05;22.97;;;13.60;;
3733;SDS011;1882;52.256;8.874;2023-03-01T08:28:34;20.40;;;12.97;;
3733;SDS011;1882;52.256;8.874;2023-03-01T08:31:02;24.10;;;13.53;;
3733;SDS011;1882;52.256;8.874;2023-03-01T08:33:28;24.27;;;13.30;;
3733;SDS011;1882;52.256;8.874;2023-03-01T08:36:02;22.57;;;14.43;;
3733;SDS011;1882;52.256;8.874;2023-03-01T08:38:30;20.33;;;13.13;;
3733;SDS011;1882;52.256;8.874;2023-03-01T08:40:59;16.93;;;10.13;;
3733;SDS011;1882;52.256;8.874;2023-03-01T08:43:26;15.10;;;9.73;;
3733;SDS011;1882;52.256;8.874;2023-03-01T08:46:02;15.17;;;10.13;;
3733;SDS011;1882;52.256;8.874;2023-03-01T08:48:29;21.37;;;10.50;;
3733;SDS011;1882;52.256;8.874;2023-03-01T08:50:56;20.10;;;11.30;;
3733;SDS011;1882;52.256;8.874;2023-03-01T08:53:23;20.40;;;12.70;;
3733;SDS011;1882;52.256;8.874;2023-03-01T08:55:54;33.20;;;15.77;;
3733;SDS011;1882;52.256;8.874;2023-03-01T08:58:20;25.43;;;15.50;;
3733;SDS011;1882;52.256;8.874;2023-03-01T09:00:47;28.00;;;16.27;;
3733;SDS011;1882;52.256;8.874;2023-03-01T09:03:14;28.30;;;15.93;;
3733;SDS011;1882;52.256;8.874;2023-03-01T09:05:40;26.50;;;16.50;;
3733;SDS011;1882;52.256;8.874;2023-03-01T09:08:14;29.27;;;16.37;;
3733;SDS011;1882;52.256;8.874;2023-03-01T09:10:40;26.40;;;16.03;;
3733;SDS011;1882;52.256;8.874;2023-03-01T09:13:07;31.30;;;17.77;;
3733;SDS011;1882;52.256;8.874;2023-03-01T09:15:36;27.00;;;16.50;;
3733;SDS011;1882;52.256;8.874;2023-03-01T09:18:03;27.33;;;15.67;;
3733;SDS011;1882;52.256;8.874;2023-03-01T09:20:31;23.83;;;14.77;;
3733;SDS011;1882;52.256;8.874;2023-03-01T09:23:00;34.70;;;15.40;;
3733;SDS011;1882;52.256;8.874;2023-03-01T09:25:30;24.33;;;15.23;;
3733;SDS011;1882;52.256;8.874;2023-03-01T09:28:00;20.17;;;11.70;;
3733;SDS011;1882;52.256;8.874;2023-03-01T09:30:27;23.03;;;12.10;;
3733;SDS011;1882;52.256;8.874;2023-03-01T09:32:53;20.80;;;12.47;;
3733;SDS011;1882;52.256;8.874;2023-03-01T09:35:23;19.53;;;11.30;;
3733;SDS011;1882;52.256;8.874;2023-03-01T09:37:49;18.70;;;10.77;;
3733;SDS011;1882;52.256;8.874;2023-03-01T09:40:20;19.17;;;12.23;;
3733;SDS011;1882;52.256;8.874;2023-03-01T09:42:51;19.30;;;11.60;;
3733;SDS011;1882;52.256;8.874;2023-03-01T09:45:32;16.10;;;10.30;;
3733;SDS011;1882;52.256;8.874;2023-03-01T09:48:02;18.40;;;10.40;;
3733;SDS011;1882;52.256;8.874;2023-03-01T09:50:39;15.40;;;9.70;;
3733;SDS011;1882;52.256;8.874;2023-03-01T09:53:09;15.60;;;9.17;;
3733;SDS011;1882;52.256;8.874;2023-03-01T09:55:43;16.40;;;9.30;;
3733;SDS011;1882;52.256;8.874;2023-03-01T10:01:27;16.77;;;9.07;;
3733;SDS011;1882;52.256;8.874;2023-03-01T10:04:09;13.77;;;8.20;;
3733;SDS011;1882;52.256;8.874;2023-03-01T10:07:02;18.37;;;9.70;;
3733;SDS011;1882;52.256;8.874;2023-03-01T10:09:40;13.80;;;8.13;;
3733;SDS011;1882;52.256;8.874;2023-03-01T10:12:10;18.57;;;8.10;;
3733;SDS011;1882;52.256;8.874;2023-03-01T10:14:40;16.80;;;8.20;;
3733;SDS011;1882;52.256;8.874;2023-03-01T10:23:07;15.43;;;8.40;;
3733;SDS011;1882;52.256;8.874;2023-03-01T10:25:51;18.43;;;7.90;;
3733;SDS011;1882;52.256;8.874;2023-03-01T10:28:42;14.80;;;8.00;;
3733;SDS011;1882;52.256;8.874;2023-03-01T10:31:15;13.80;;;8.73;;
3733;SDS011;1882;52.256;8.874;2023-03-01T10:33:47;16.40;;;9.30;;
3733;SDS011;1882;52.256;8.874;2023-03-01T10:36:17;15.27;;;8.13;;
3733;SDS011;1882;52.256;8.874;2023-03-01T10:38:51;13.33;;;8.87;;
3733;SDS011;1882;52.256;8.874;2023-03-01T10:41:21;15.93;;;9.20;;
3733;SDS011;1882;52.256;8.874;2023-03-01T10:43:56;11.57;;;7.13;;
3733;SDS011;1882;52.256;8.874;2023-03-01T10:46:34;14.03;;;6.60;;
3733;SDS011;1882;52.256;8.874;2023-03-01T10:51:36;13.53;;;6.40;;
3733;SDS011;1882;52.256;8.874;2023-03-01T10:57:04;12.13;;;6.63;;
3733;SDS011;1882;52.256;8.874;2023-03-01T10:59:44;11.50;;;6.77;;
3733;SDS011;1882;52.256;8.874;2023-03-01T11:02:20;10.40;;;6.83;;
3733;SDS011;1882;52.256;8.874;2023-03-01T11:04:59;11.27;;;6.97;;
3733;SDS011;1882;52.256;8.874;2023-03-01T11:07:26;11.27;;;6.03;;
3733;SDS011;1882;52.256;8.874;2023-03-01T11:09:53;10.83;;;6.03;;
3733;SDS011;1882;52.256;8.874;2023-03-01T11:12:20;11.67;;;6.27;;
3733;SDS011;1882;52.256;8.874;2023-03-01T11:14:51;10.93;;;6.33;;
3733;SDS011;1882;52.256;8.874;2023-03-01T11:17:31;11.87;;;7.07;;
3733;SDS011;1882;52.256;8.874;2023-03-01T11:23:12;9.50;;;5.90;;
3733;SDS011;1882;52.256;8.874;2023-03-01T11:25:41;10.50;;;6.60;;
3733;SDS011;1882;52.256;8.874;2023-03-01T11:28:14;12.00;;;6.40;;
3733;SDS011;1882;52.256;8.874;2023-03-01T11:30:54;11.20;;;6.03;;
3733;SDS011;1882;52.256;8.874;2023-03-01T11:36:16;12.50;;;6.00;;
3733;SDS011;1882;52.256;8.874;2023-03-01T11:38:50;15.83;;;7.07;;
3733;SDS011;1882;52.256;8.874;2023-03-01T11:41:30;14.27;;;6.60;;
3733;SDS011;1882;52.256;8.874;2023-03-01T12:07:41;15.80;;;7.40;;
3733;SDS011;1882;52.256;8.874;2023-03-01T12:10:33;13.63;;;6.97;;
3733;SDS011;1882;52.256;8.874;2023-03-01T12:16:21;12.40;;;6.70;;
3733;SDS011;1882;52.256;8.874;2023-03-01T12:22:09;12.50;;;6.23;;
3733;SDS011;1882;52.256;8.874;2023-03-01T12:28:11;11.47;;;6.70;;
3733;SDS011;1882;52.256;8.874;2023-03-01T12:31:15;10.80;;;6.73;;
3733;SDS011;1882;52.256;8.874;2023-03-01T12:51:09;10.77;;;6.47;;
3733;SDS011;1882;52.256;8.874;2023-03-01T12:53:49;15.43;;;6.87;;
3733;SDS011;1882;52.256;8.874;2023-03-01T12:56:37;12.90;;;7.17;;
3733;SDS011;1882;52.256;8.874;2023-03-01T13:15:24;11.53;;;6.67;;
3733;SDS011;1882;52.256;8.874;2023-03-01T13:21:44;12.90;;;6.20;;
3733;SDS011;1882;52.256;8.874;2023-03-01T13:24:54;11.60;;;6.13;;
3733;SDS011;1882;52.256;8.874;2023-03-01T13:29:50;7.97;;;5.23;;
3733;SDS011;1882;52.256;8.874;2023-03-01T13:37:45;8.77;;;5.37;;
3733;SDS011;1882;52.256;8.874;2023-03-01T13:42:43;9.77;;;5.60;;
3733;SDS011;1882;52.256;8.874;2023-03-01T13:45:40;9.00;;;5.10;;
3733;SDS011;1882;52.256;8.874;2023-03-01T13:48:10;11.37;;;5.40;;
3733;SDS011;1882;52.256;8.874;2023-03-01T13:51:00;8.80;;;5.27;;
3733;SDS011;1882;52.256;8.874;2023-03-01T13:53:31;9.97;;;4.43;;
3733;SDS011;1882;52.256;8.874;2023-03-01T13:56:02;6.97;;;4.77;;
3733;SDS011;1882;52.256;8.874;2023-03-01T13:58:47;11.67;;;4.97;;
3733;SDS011;1882;52.256;8.874;2023-03-01T14:01:28;7.70;;;4.43;;
3733;SDS011;1882;52.256;8.874;2023-03-01T14:03:59;7.10;;;4.17;;
3733;SDS011;1882;52.256;8.874;2023-03-01T14:09:47;6.10;;;4.33;;
3733;SDS011;1882;52.256;8.874;2023-03-01T14:20:46;9.87;;;4.77;;
3733;SDS011;1882;52.256;8.874;2023-03-01T14:23:20;14.47;;;4.70;;
3733;SDS011;1882;52.256;8.874;2023-03-01T14:25:53;6.77;;;3.37;;
3733;SDS011;1882;52.256;8.874;2023-03-01T14:28:25;6.43;;;3.93;;
3733;SDS011;1882;52.256;8.874;2023-03-01T14:30:54;5.50;;;3.80;;
3733;SDS011;1882;52.256;8.874;2023-03-01T14:33:25;10.77;;;3.77;;
3733;SDS011;1882;52.256;8.874;2023-03-01T14:36:00;7.10;;;3.50;;
3733;SDS011;1882;52.256;8.874;2023-03-01T14:38:34;6.33;;;4.00;;
3733;SDS011;1882;52.256;8.874;2023-03-01T14:41:13;6.63;;;4.00;;
3733;SDS011;1882;52.256;8.874;2023-03-01T14:43:47;7.90;;;3.70;;
3733;SDS011;1882;52.256;8.874;2023-03-01T14:51:42;6.60;;;3.80;;
3733;SDS011;1882;52.256;8.874;2023-03-01T14:54:20;7.37;;;4.00;;
3733;SDS011;1882;52.256;8.874;2023-03-01T14:56:48;5.47;;;3.37;;
3733;SDS011;1882;52.256;8.874;2023-03-01T14:59:15;5.73;;;3.40;;
3733;SDS011;1882;52.256;8.874;2023-03-01T15:01:42;8.37;;;3.83;;
3733;SDS011;1882;52.256;8.874;2023-03-01T15:04:18;4.87;;;3.50;;
3733;SDS011;1882;52.256;8.874;2023-03-01T15:06:45;8.47;;;4.40;;
3733;SDS011;1882;52.256;8.874;2023-03-01T15:09:13;8.07;;;3.97;;
3733;SDS011;1882;52.256;8.874;2023-03-01T15:14:55;5.63;;;3.83;;
3733;SDS011;1882;52.256;8.874;2023-03-01T15:17:36;9.10;;;4.10;;
3733;SDS011;1882;52.256;8.874;2023-03-01T15:20:06;5.27;;;3.80;;
3733;SDS011;1882;52.256;8.874;2023-03-01T15:22:43;7.43;;;3.60;;
3733;SDS011;1882;52.256;8.874;2023-03-01T15:25:18;6.77;;;3.87;;
3733;SDS011;1882;52.256;8.874;2023-03-01T15:27:46;8.37;;;4.27;;
3733;SDS011;1882;52.256;8.874;2023-03-01T15:30:17;7.60;;;4.57;;
3733;SDS011;1882;52.256;8.874;2023-03-01T15:32:47;5.33;;;3.80;;
3733;SDS011;1882;52.256;8.874;2023-03-01T15:38:23;6.17;;;3.57;;
3733;SDS011;1882;52.256;8.874;2023-03-01T15:40:54;6.07;;;3.83;;
3733;SDS011;1882;52.256;8.874;2023-03-01T15:49:02;7.53;;;3.90;;
3733;SDS011;1882;52.256;8.874;2023-03-01T15:51:31;6.27;;;3.50;;
3733;SDS011;1882;52.256;8.874;2023-03-01T15:53:59;5.33;;;3.63;;
3733;SDS011;1882;52.256;8.874;2023-03-01T15:56:27;6.20;;;4.10;;
3733;SDS011;1882;52.256;8.874;2023-03-01T15:59:01;8.93;;;5.00;;
3733;SDS011;1882;52.256;8.874;2023-03-01T16:01:29;7.67;;;4.57;;
3733;SDS011;1882;52.256;8.874;2023-03-01T16:04:00;8.43;;;4.13;;
3733;SDS011;1882;52.256;8.874;2023-03-01T16:06:27;5.50;;;3.70;;
3733;SDS011;1882;52.256;8.874;2023-03-01T16:08:57;7.50;;;4.10;;
3733;SDS011;1882;52.256;8.874;2023-03-01T16:11:30;7.40;;;4.13;;
3733;SDS011;1882;52.256;8.874;2023-03-01T16:13:58;9.10;;;4.50;;
3733;SDS011;1882;52.256;8.874;2023-03-01T16:16:25;10.17;;;3.90;;
3733;SDS011;1882;52.256;8.874;2023-03-01T16:18:52;11.23;;;4.10;;
3733;SDS011;1882;52.256;8.874;2023-03-01T16:21:27;9.37;;;4.37;;
3733;SDS011;1882;52.256;8.874;2023-03-01T16:23:55;6.70;;;4.00;;
3733;SDS011;1882;52.256;8.874;2023-03-01T16:26:31;6.50;;;4.17;;
3733;SDS011;1882;52.256;8.874;2023-03-01T16:28:58;8.30;;;4.23;;
3733;SDS011;1882;52.256;8.874;2023-03-01T16:31:25;7.10;;;4.00;;
3733;SDS011;1882;52.256;8.874;2023-03-01T16:34:04;6.70;;;4.33;;
3733;SDS011;1882;52.256;8.874;2023-03-01T16:36:31;8.93;;;4.40;;
3733;SDS011;1882;52.256;8.874;2023-03-01T16:38:58;9.43;;;5.13;;
3733;SDS011;1882;52.256;8.874;2023-03-01T16:41:35;14.03;;;6.60;;
3733;SDS011;1882;52.256;8.874;2023-03-01T16:44:02;12.27;;;5.43;;
3733;SDS011;1882;52.256;8.874;2023-03-01T16:46:29;8.50;;;4.87;;
3733;SDS011;1882;52.256;8.874;2023-03-01T16:49:14;14.87;;;8.17;;
3733;SDS011;1882;52.256;8.874;2023-03-01T16:51:40;40.63;;;18.03;;
3733;SDS011;1882;52.256;8.874;2023-03-01T16:54:08;124.33;;;46.17;;
3733;SDS011;1882;52.256;8.874;2023-03-01T16:56:35;96.40;;;38.40;;
3733;SDS011;1882;52.256;8.874;2023-03-01T16:59:03;47.43;;;21.97;;
3733;SDS011;1882;52.256;8.874;2023-03-01T17:01:32;11.40;;;7.03;;
3733;SDS011;1882;52.256;8.874;2023-03-01T17:04:10;6.93;;;5.03;;
3733;SDS011;1882;52.256;8.874;2023-03-01T17:06:38;7.37;;;5.00;;
3733;SDS011;1882;52.256;8.874;2023-03-01T17:09:05;9.37;;;5.10;;
3733;SDS011;1882;52.256;8.874;2023-03-01T17:11:31;10.47;;;5.00;;
3733;SDS011;1882;52.256;8.874;2023-03-01T17:14:06;7.83;;;5.30;;
3733;SDS011;1882;52.256;8.874;2023-03-01T17:16:33;11.80;;;5.30;;
3733;SDS011;1882;52.256;8.874;2023-03-01T17:19:01;9.00;;;5.60;;
3733;SDS011;1882;52.256;8.874;2023-03-01T17:21:35;8.93;;;5.10;;
3733;SDS011;1882;52.256;8.874;2023-03-01T17:24:03;7.80;;;5.07;;
3733;SDS011;1882;52.256;8.874;2023-03-01T17:26:30;10.80;;;5.30;;
3733;SDS011;1882;52.256;8.874;2023-03-01T17:29:07;11.63;;;5.30;;
3733;SDS011;1882;52.256;8.874;2023-03-01T17:31:33;10.73;;;5.40;;
3733;SDS011;1882;52.256;8.874;2023-03-01T17:34:00;12.07;;;5.70;;
3733;SDS011;1882;52.256;8.874;2023-03-01T17:36:27;12.10;;;6.10;;
3733;SDS011;1882;52.256;8.874;2023-03-01T17:39:02;10.00;;;5.23;;
3733;SDS011;1882;52.256;8.874;2023-03-01T17:41:29;7.70;;;5.10;;
3733;SDS011;1882;52.256;8.874;2023-03-01T17:43:57;8.10;;;4.93;;
3733;SDS011;1882;52.256;8.874;2023-03-01T17:46:29;9.30;;;5.13;;
3733;SDS011;1882;52.256;8.874;2023-03-01T17:48:59;9.50;;;5.10;;
3733;SDS011;1882;52.256;8.874;2023-03-01T17:51:29;8.40;;;4.63;;
3733;SDS011;1882;52.256;8.874;2023-03-01T17:54:01;7.43;;;4.47;;